sensor_id;sensor_type;location;lat;lon;timestamp;P1;durP1;ratioP1;P2;durP2;ratioP2
17488;SDS011;8861;52.644;4.734;2023-12-20T00:00:34;32.53;;;4.90;;
17488;SDS011;8861;52.644;4.734;2023-12-20T00:03:03;20.87;;;4.07;;
17488;SDS011;8861;52.644;4.734;2023-12-20T00:05:31;25.80;;;4.67;;
17488;SDS011;8861;52.644;4.734;2023-12-20T00:07:58;26.83;;;4.63;;
17488;SDS011;8861;52.644;4.734;2023-12-20T00:10:25;19.40;;;3.87;;
17488;SDS011;8861;52.644;4.734;2023-12-20T00:12:52;31.10;;;5.20;;
17488;SDS011;8861;52.644;4.734;2023-12-20T00:15:21;24.60;;;5.30;;
17488;SDS011;8861;52.644;4.734;2023-12-20T00:17:48;24.83;;;4.93;;
17488;SDS011;8861;52.644;4.734;2023-12-20T00:20:15;25.47;;;4.70;;
17488;SDS011;8861;52.644;4.734;2023-12-20T00:22:42;33.70;;;6.03;;
17488;SDS011;8861;52.644;4.734;2023-12-20T00:25:09;25.87;;;5.40;;
17488;SDS011;8861;52.644;4.734;2023-12-20T00:27:36;21.83;;;4.67;;
17488;SDS011;8861;52.644;4.734;2023-12-20T00:30:04;21.83;;;4.87;;
17488;SDS011;8861;52.644;4.734;2023-12-20T00:32:34;23.57;;;4.80;;
17488;SDS011;8861;52.644;4.734;2023-12-20T00:35:01;23.07;;;5.13;;
17488;SDS011;8861;52.644;4.734;2023-12-20T00:37:29;26.37;;;5.60;;
17488;SDS011;8861;52.644;4.734;2023-12-20T00:39:56;28.27;;;5.30;;
17488;SDS011;8861;52.644;4.734;2023-12-20T00:42:23;34.90;;;6.30;;
17488;SDS011;8861;52.644;4.734;2023-12-20T00:44:50;28.00;;;5.13;;
17488;SDS011;8861;52.644;4.734;2023-12-20T00:47:17;28.97;;;5.40;;
17488;SDS011;8861;52.644;4.734;2023-12-20T00:49:46;28.43;;;6.20;;
17488;SDS011;8861;52.644;4.734;2023-12-20T00:52:13;29.57;;;5.90;;
17488;SDS011;8861;52.644;4.734;2023-12-20T00:54:40;30.73;;;6.03;;
17488;SDS011;8861;52.644;4.734;2023-12-20T00:57:06;36.60;;;6.13;;
17488;SDS011;8861;52.644;4.734;2023-12-20T00:59:33;34.50;;;6.40;;
17488;SDS011;8861;52.644;4.734;2023-12-20T01:02:01;29.67;;;6.30;;
17488;SDS011;8861;52.644;4.734;2023-12-20T01:04:28;29.70;;;6.27;;
17488;SDS011;8861;52.644;4.734;2023-12-20T01:06:56;28.53;;;5.67;;
17488;SDS011;8861;52.644;4.734;2023-12-20T01:09:24;28.67;;;5.83;;
17488;SDS011;8861;52.644;4.734;2023-12-20T01:11:51;35.77;;;6.00;;
17488;SDS011;8861;52.644;4.734;2023-12-20T01:14:18;33.67;;;6.27;;
17488;SDS011;8861;52.644;4.734;2023-12-20T01:16:46;26.00;;;5.40;;
17488;SDS011;8861;52.644;4.734;2023-12-20T01:19:13;30.00;;;5.70;;
17488;SDS011;8861;52.644;4.734;2023-12-20T01:21:41;34.77;;;5.63;;
17488;SDS011;8861;52.644;4.734;2023-12-20T01:24:09;22.67;;;5.03;;
17488;SDS011;8861;52.644;4.734;2023-12-20T01:26:37;33.47;;;6.07;;
17488;SDS011;8861;52.644;4.734;2023-12-20T01:29:04;25.87;;;4.60;;
17488;SDS011;8861;52.644;4.734;2023-12-20T01:31:31;22.83;;;4.90;;
17488;SDS011;8861;52.644;4.734;2023-12-20T01:33:58;32.80;;;5.63;;
17488;SDS011;8861;52.644;4.734;2023-12-20T01:36:25;34.10;;;6.07;;
17488;SDS011;8861;52.644;4.734;2023-12-20T01:38:52;36.07;;;5.43;;
17488;SDS011;8861;52.644;4.734;2023-12-20T01:41:20;22.50;;;5.10;;
17488;SDS011;8861;52.644;4.734;2023-12-20T01:43:48;26.87;;;5.63;;
17488;SDS011;8861;52.644;4.734;2023-12-20T01:46:15;25.13;;;5.10;;
17488;SDS011;8861;52.644;4.734;2023-12-20T01:48:43;25.23;;;5.40;;
17488;SDS011;8861;52.644;4.734;2023-12-20T01:51:10;27.77;;;5.30;;
17488;SDS011;8861;52.644;4.734;2023-12-20T01:53:38;30.67;;;5.73;;
17488;SDS011;8861;52.644;4.734;2023-12-20T01:56:06;27.23;;;5.20;;
17488;SDS011;8861;52.644;4.734;2023-12-20T01:58:36;33.77;;;5.83;;
17488;SDS011;8861;52.644;4.734;2023-12-20T02:01:05;27.77;;;5.50;;
17488;SDS011;8861;52.644;4.734;2023-12-20T02:03:32;27.47;;;5.43;;
17488;SDS011;8861;52.644;4.734;2023-12-20T02:06:01;27.73;;;5.33;;
17488;SDS011;8861;52.644;4.734;2023-12-20T02:08:29;21.83;;;4.90;;
17488;SDS011;8861;52.644;4.734;2023-12-20T02:10:56;28.77;;;5.70;;
17488;SDS011;8861;52.644;4.734;2023-12-20T02:13:23;24.27;;;5.20;;
17488;SDS011;8861;52.644;4.734;2023-12-20T02:15:53;20.47;;;5.27;;
17488;SDS011;8861;52.644;4.734;2023-12-20T02:18:21;29.53;;;5.10;;
17488;SDS011;8861;52.644;4.734;2023-12-20T02:20:49;24.67;;;5.07;;
17488;SDS011;8861;52.644;4.734;2023-12-20T02:23:17;30.40;;;5.43;;
17488;SDS011;8861;52.644;4.734;2023-12-20T02:25:44;32.77;;;5.47;;
17488;SDS011;8861;52.644;4.734;2023-12-20T02:28:11;28.10;;;4.77;;
17488;SDS011;8861;52.644;4.734;2023-12-20T02:30:39;29.83;;;5.47;;
17488;SDS011;8861;52.644;4.734;2023-12-20T02:33:06;30.77;;;5.67;;
17488;SDS011;8861;52.644;4.734;2023-12-20T02:35:36;25.90;;;4.77;;
17488;SDS011;8861;52.644;4.734;2023-12-20T02:38:04;30.23;;;6.53;;
17488;SDS011;8861;52.644;4.734;2023-12-20T02:40:32;37.37;;;6.07;;
17488;SDS011;8861;52.644;4.734;2023-12-20T02:42:59;27.10;;;5.37;;
17488;SDS011;8861;52.644;4.734;2023-12-20T02:45:26;23.73;;;5.10;;
17488;SDS011;8861;52.644;4.734;2023-12-20T02:47:53;34.07;;;6.40;;
17488;SDS011;8861;52.644;4.734;2023-12-20T02:50:22;30.00;;;4.97;;
17488;SDS011;8861;52.644;4.734;2023-12-20T02:52:50;29.60;;;5.60;;
17488;SDS011;8861;52.644;4.734;2023-12-20T02:55:16;32.40;;;5.57;;
17488;SDS011;8861;52.644;4.734;2023-12-20T02:57:45;27.77;;;5.47;;
17488;SDS011;8861;52.644;4.734;2023-12-20T03:00:12;21.93;;;5.03;;
17488;SDS011;8861;52.644;4.734;2023-12-20T03:02:39;30.20;;;5.80;;
17488;SDS011;8861;52.644;4.734;2023-12-20T03:05:07;28.07;;;5.97;;
17488;SDS011;8861;52.644;4.734;2023-12-20T03:07:33;24.60;;;6.00;;
17488;SDS011;8861;52.644;4.734;2023-12-20T03:10:00;27.17;;;5.40;;
17488;SDS011;8861;52.644;4.734;2023-12-20T03:12:28;27.63;;;5.47;;
17488;SDS011;8861;52.644;4.734;2023-12-20T03:14:56;32.03;;;5.97;;
17488;SDS011;8861;52.644;4.734;2023-12-20T03:17:23;36.20;;;5.77;;
17488;SDS011;8861;52.644;4.734;2023-12-20T03:19:50;32.27;;;6.27;;
17488;SDS011;8861;52.644;4.734;2023-12-20T03:22:17;27.60;;;5.60;;
17488;SDS011;8861;52.644;4.734;2023-12-20T03:24:45;24.53;;;5.53;;
17488;SDS011;8861;52.644;4.734;2023-12-20T03:27:12;31.57;;;5.57;;
17488;SDS011;8861;52.644;4.734;2023-12-20T03:29:39;32.00;;;5.77;;
17488;SDS011;8861;52.644;4.734;2023-12-20T03:32:08;30.97;;;6.50;;
17488;SDS011;8861;52.644;4.734;2023-12-20T03:34:35;32.63;;;6.13;;
17488;SDS011;8861;52.644;4.734;2023-12-20T03:37:02;28.87;;;6.03;;
17488;SDS011;8861;52.644;4.734;2023-12-20T03:39:29;30.53;;;5.93;;
17488;SDS011;8861;52.644;4.734;2023-12-20T03:41:56;29.47;;;5.17;;
17488;SDS011;8861;52.644;4.734;2023-12-20T03:44:23;29.87;;;5.70;;
17488;SDS011;8861;52.644;4.734;2023-12-20T03:46:50;33.30;;;6.00;;
17488;SDS011;8861;52.644;4.734;2023-12-20T03:49:18;29.00;;;5.03;;
17488;SDS011;8861;52.644;4.734;2023-12-20T03:51:47;33.57;;;6.33;;
17488;SDS011;8861;52.644;4.734;2023-12-20T03:54:14;31.27;;;5.70;;
17488;SDS011;8861;52.644;4.734;2023-12-20T03:56:40;32.00;;;6.10;;
17488;SDS011;8861;52.644;4.734;2023-12-20T03:59:08;27.20;;;5.23;;
17488;SDS011;8861;52.644;4.734;2023-12-20T04:01:35;39.50;;;5.70;;
17488;SDS011;8861;52.644;4.734;2023-12-20T04:04:02;22.03;;;4.77;;
17488;SDS011;8861;52.644;4.734;2023-12-20T04:06:31;27.83;;;5.13;;
17488;SDS011;8861;52.644;4.734;2023-12-20T04:08:57;27.83;;;5.13;;
17488;SDS011;8861;52.644;4.734;2023-12-20T04:11:24;22.83;;;4.63;;
17488;SDS011;8861;52.644;4.734;2023-12-20T04:13:52;30.20;;;5.30;;
17488;SDS011;8861;52.644;4.734;2023-12-20T04:16:19;32.07;;;5.63;;
17488;SDS011;8861;52.644;4.734;2023-12-20T04:18:46;28.93;;;5.17;;
17488;SDS011;8861;52.644;4.734;2023-12-20T04:21:13;26.93;;;4.40;;
17488;SDS011;8861;52.644;4.734;2023-12-20T04:23:42;27.53;;;5.23;;
17488;SDS011;8861;52.644;4.734;2023-12-20T04:26:09;31.40;;;5.80;;
17488;SDS011;8861;52.644;4.734;2023-12-20T04:28:36;26.73;;;5.10;;
17488;SDS011;8861;52.644;4.734;2023-12-20T04:31:03;32.73;;;5.33;;
17488;SDS011;8861;52.644;4.734;2023-12-20T04:33:30;25.97;;;4.90;;
17488;SDS011;8861;52.644;4.734;2023-12-20T04:35:57;31.03;;;5.60;;
17488;SDS011;8861;52.644;4.734;2023-12-20T04:38:25;30.87;;;5.93;;
17488;SDS011;8861;52.644;4.734;2023-12-20T04:40:53;27.13;;;5.50;;
17488;SDS011;8861;52.644;4.734;2023-12-20T04:43:20;24.47;;;5.47;;
17488;SDS011;8861;52.644;4.734;2023-12-20T04:45:47;29.10;;;5.53;;
17488;SDS011;8861;52.644;4.734;2023-12-20T04:48:14;18.47;;;4.40;;
17488;SDS011;8861;52.644;4.734;2023-12-20T04:50:41;35.27;;;5.80;;
17488;SDS011;8861;52.644;4.734;2023-12-20T04:53:08;31.87;;;5.80;;
17488;SDS011;8861;52.644;4.734;2023-12-20T04:55:35;33.73;;;5.77;;
17488;SDS011;8861;52.644;4.734;2023-12-20T04:58:05;33.20;;;5.60;;
17488;SDS011;8861;52.644;4.734;2023-12-20T05:00:32;21.00;;;5.20;;
17488;SDS011;8861;52.644;4.734;2023-12-20T05:02:59;23.60;;;4.67;;
17488;SDS011;8861;52.644;4.734;2023-12-20T05:05:27;28.03;;;5.37;;
17488;SDS011;8861;52.644;4.734;2023-12-20T05:07:54;31.20;;;5.10;;
17488;SDS011;8861;52.644;4.734;2023-12-20T05:10:21;29.43;;;5.40;;
17488;SDS011;8861;52.644;4.734;2023-12-20T05:12:47;34.63;;;5.73;;
17488;SDS011;8861;52.644;4.734;2023-12-20T05:15:16;28.60;;;5.77;;
17488;SDS011;8861;52.644;4.734;2023-12-20T05:17:43;27.10;;;5.33;;
17488;SDS011;8861;52.644;4.734;2023-12-20T05:20:10;28.00;;;5.60;;
17488;SDS011;8861;52.644;4.734;2023-12-20T05:22:37;36.30;;;5.90;;
17488;SDS011;8861;52.644;4.734;2023-12-20T05:25:05;28.67;;;5.93;;
17488;SDS011;8861;52.644;4.734;2023-12-20T05:27:32;30.43;;;5.10;;
17488;SDS011;8861;52.644;4.734;2023-12-20T05:30:00;22.87;;;5.23;;
17488;SDS011;8861;52.644;4.734;2023-12-20T05:32:31;25.03;;;4.87;;
17488;SDS011;8861;52.644;4.734;2023-12-20T05:34:58;24.47;;;5.00;;
17488;SDS011;8861;52.644;4.734;2023-12-20T05:37:25;28.87;;;5.57;;
17488;SDS011;8861;52.644;4.734;2023-12-20T05:39:53;29.90;;;5.00;;
17488;SDS011;8861;52.644;4.734;2023-12-20T05:42:21;30.47;;;5.40;;
17488;SDS011;8861;52.644;4.734;2023-12-20T05:44:48;32.37;;;5.70;;
17488;SDS011;8861;52.644;4.734;2023-12-20T05:47:15;32.87;;;5.40;;
17488;SDS011;8861;52.644;4.734;2023-12-20T05:49:44;30.23;;;5.90;;
17488;SDS011;8861;52.644;4.734;2023-12-20T05:52:11;25.10;;;4.93;;
17488;SDS011;8861;52.644;4.734;2023-12-20T05:54:38;33.37;;;5.77;;
17488;SDS011;8861;52.644;4.734;2023-12-20T05:57:06;32.43;;;6.20;;
17488;SDS011;8861;52.644;4.734;2023-12-20T05:59:32;33.57;;;5.97;;
17488;SDS011;8861;52.644;4.734;2023-12-20T06:02:00;22.17;;;5.17;;
17488;SDS011;8861;52.644;4.734;2023-12-20T06:04:26;31.40;;;5.80;;
17488;SDS011;8861;52.644;4.734;2023-12-20T06:06:55;35.07;;;6.17;;
17488;SDS011;8861;52.644;4.734;2023-12-20T06:09:22;32.03;;;6.20;;
17488;SDS011;8861;52.644;4.734;2023-12-20T06:11:49;35.73;;;6.13;;
17488;SDS011;8861;52.644;4.734;2023-12-20T06:14:17;35.90;;;6.07;;
17488;SDS011;8861;52.644;4.734;2023-12-20T06:16:44;33.53;;;6.13;;
17488;SDS011;8861;52.644;4.734;2023-12-20T06:19:11;23.00;;;5.47;;
17488;SDS011;8861;52.644;4.734;2023-12-20T06:21:39;32.97;;;6.20;;
17488;SDS011;8861;52.644;4.734;2023-12-20T06:24:07;28.67;;;5.47;;
17488;SDS011;8861;52.644;4.734;2023-12-20T06:26:34;35.30;;;5.73;;
17488;SDS011;8861;52.644;4.734;2023-12-20T06:29:01;34.53;;;5.80;;
17488;SDS011;8861;52.644;4.734;2023-12-20T06:31:28;35.90;;;5.47;;
17488;SDS011;8861;52.644;4.734;2023-12-20T06:33:58;30.37;;;5.87;;
17488;SDS011;8861;52.644;4.734;2023-12-20T06:36:25;31.60;;;5.87;;
17488;SDS011;8861;52.644;4.734;2023-12-20T06:38:53;33.37;;;5.93;;
17488;SDS011;8861;52.644;4.734;2023-12-20T06:41:21;32.47;;;5.87;;
17488;SDS011;8861;52.644;4.734;2023-12-20T06:43:49;31.67;;;4.87;;
17488;SDS011;8861;52.644;4.734;2023-12-20T06:46:16;37.93;;;5.73;;
17488;SDS011;8861;52.644;4.734;2023-12-20T06:48:43;31.63;;;5.17;;
17488;SDS011;8861;52.644;4.734;2023-12-20T06:51:12;33.43;;;5.77;;
17488;SDS011;8861;52.644;4.734;2023-12-20T06:53:40;29.73;;;5.60;;
17488;SDS011;8861;52.644;4.734;2023-12-20T06:56:07;35.10;;;5.70;;
17488;SDS011;8861;52.644;4.734;2023-12-20T06:58:38;29.33;;;6.40;;
17488;SDS011;8861;52.644;4.734;2023-12-20T07:01:05;29.43;;;5.43;;
17488;SDS011;8861;52.644;4.734;2023-12-20T07:03:36;35.37;;;6.00;;
17488;SDS011;8861;52.644;4.734;2023-12-20T07:06:04;27.77;;;4.90;;
17488;SDS011;8861;52.644;4.734;2023-12-20T07:08:31;40.93;;;5.90;;
17488;SDS011;8861;52.644;4.734;2023-12-20T07:10:58;34.00;;;6.10;;
17488;SDS011;8861;52.644;4.734;2023-12-20T07:13:25;29.50;;;5.23;;
17488;SDS011;8861;52.644;4.734;2023-12-20T07:15:53;32.20;;;5.77;;
17488;SDS011;8861;52.644;4.734;2023-12-20T07:18:20;27.87;;;5.97;;
17488;SDS011;8861;52.644;4.734;2023-12-20T07:20:47;30.23;;;5.67;;
17488;SDS011;8861;52.644;4.734;2023-12-20T07:23:15;36.57;;;5.67;;
17488;SDS011;8861;52.644;4.734;2023-12-20T07:25:42;24.40;;;5.13;;
17488;SDS011;8861;52.644;4.734;2023-12-20T07:28:09;30.17;;;5.57;;
17488;SDS011;8861;52.644;4.734;2023-12-20T07:30:36;33.60;;;5.30;;
17488;SDS011;8861;52.644;4.734;2023-12-20T07:33:05;27.57;;;5.00;;
17488;SDS011;8861;52.644;4.734;2023-12-20T07:35:34;26.97;;;5.77;;
17488;SDS011;8861;52.644;4.734;2023-12-20T07:38:03;24.20;;;4.53;;
17488;SDS011;8861;52.644;4.734;2023-12-20T07:40:34;29.80;;;5.50;;
17488;SDS011;8861;52.644;4.734;2023-12-20T07:43:04;28.87;;;5.73;;
17488;SDS011;8861;52.644;4.734;2023-12-20T07:45:31;27.03;;;5.60;;
17488;SDS011;8861;52.644;4.734;2023-12-20T07:47:59;24.10;;;5.27;;
17488;SDS011;8861;52.644;4.734;2023-12-20T07:50:27;25.80;;;4.87;;
17488;SDS011;8861;52.644;4.734;2023-12-20T07:52:54;23.80;;;4.60;;
17488;SDS011;8861;52.644;4.734;2023-12-20T07:55:21;28.17;;;4.27;;
17488;SDS011;8861;52.644;4.734;2023-12-20T07:57:48;25.27;;;5.60;;
17488;SDS011;8861;52.644;4.734;2023-12-20T08:00:17;31.57;;;5.40;;
17488;SDS011;8861;52.644;4.734;2023-12-20T08:02:45;20.50;;;4.43;;
17488;SDS011;8861;52.644;4.734;2023-12-20T08:05:12;32.87;;;5.80;;
17488;SDS011;8861;52.644;4.734;2023-12-20T08:07:41;21.83;;;4.47;;
17488;SDS011;8861;52.644;4.734;2023-12-20T08:10:08;21.90;;;4.60;;
17488;SDS011;8861;52.644;4.734;2023-12-20T08:12:36;27.93;;;4.63;;
17488;SDS011;8861;52.644;4.734;2023-12-20T08:15:05;25.77;;;5.13;;
17488;SDS011;8861;52.644;4.734;2023-12-20T08:17:32;26.57;;;4.97;;
17488;SDS011;8861;52.644;4.734;2023-12-20T08:20:00;21.90;;;4.50;;
17488;SDS011;8861;52.644;4.734;2023-12-20T08:22:27;27.90;;;4.80;;
17488;SDS011;8861;52.644;4.734;2023-12-20T08:24:55;22.73;;;5.20;;
17488;SDS011;8861;52.644;4.734;2023-12-20T08:27:22;30.60;;;5.23;;
17488;SDS011;8861;52.644;4.734;2023-12-20T08:29:50;29.37;;;5.37;;
17488;SDS011;8861;52.644;4.734;2023-12-20T08:32:17;30.13;;;5.27;;
17488;SDS011;8861;52.644;4.734;2023-12-20T08:34:44;25.90;;;4.83;;
17488;SDS011;8861;52.644;4.734;2023-12-20T08:37:14;25.17;;;5.07;;
17488;SDS011;8861;52.644;4.734;2023-12-20T08:39:41;25.70;;;4.77;;
17488;SDS011;8861;52.644;4.734;2023-12-20T08:42:10;27.57;;;4.93;;
17488;SDS011;8861;52.644;4.734;2023-12-20T08:44:37;29.60;;;4.90;;
17488;SDS011;8861;52.644;4.734;2023-12-20T08:47:04;29.00;;;5.13;;
17488;SDS011;8861;52.644;4.734;2023-12-20T08:49:32;27.43;;;5.23;;
17488;SDS011;8861;52.644;4.734;2023-12-20T08:51:59;27.80;;;5.17;;
17488;SDS011;8861;52.644;4.734;2023-12-20T08:54:26;29.83;;;5.17;;
17488;SDS011;8861;52.644;4.734;2023-12-20T08:56:53;34.80;;;5.47;;
17488;SDS011;8861;52.644;4.734;2023-12-20T08:59:22;28.97;;;5.33;;
17488;SDS011;8861;52.644;4.734;2023-12-20T09:01:50;25.03;;;5.17;;
17488;SDS011;8861;52.644;4.734;2023-12-20T09:04:19;19.90;;;4.80;;
17488;SDS011;8861;52.644;4.734;2023-12-20T09:06:47;28.43;;;5.20;;
17488;SDS011;8861;52.644;4.734;2023-12-20T09:09:14;33.07;;;5.53;;
17488;SDS011;8861;52.644;4.734;2023-12-20T09:11:41;20.00;;;4.93;;
17488;SDS011;8861;52.644;4.734;2023-12-20T09:14:08;21.03;;;5.10;;
17488;SDS011;8861;52.644;4.734;2023-12-20T09:16:36;31.57;;;4.80;;
17488;SDS011;8861;52.644;4.734;2023-12-20T09:19:04;20.87;;;4.60;;
17488;SDS011;8861;52.644;4.734;2023-12-20T09:21:31;29.10;;;4.77;;
17488;SDS011;8861;52.644;4.734;2023-12-20T09:23:58;26.67;;;5.33;;
17488;SDS011;8861;52.644;4.734;2023-12-20T09:26:25;29.00;;;4.70;;
17488;SDS011;8861;52.644;4.734;2023-12-20T09:28:52;23.13;;;4.40;;
17488;SDS011;8861;52.644;4.734;2023-12-20T09:31:19;21.73;;;4.47;;
17488;SDS011;8861;52.644;4.734;2023-12-20T09:33:50;20.23;;;4.63;;
17488;SDS011;8861;52.644;4.734;2023-12-20T09:36:18;19.30;;;4.33;;
17488;SDS011;8861;52.644;4.734;2023-12-20T09:38:45;25.20;;;5.03;;
17488;SDS011;8861;52.644;4.734;2023-12-20T09:41:12;34.63;;;5.10;;
17488;SDS011;8861;52.644;4.734;2023-12-20T09:43:39;26.03;;;4.60;;
17488;SDS011;8861;52.644;4.734;2023-12-20T09:46:09;24.40;;;4.53;;
17488;SDS011;8861;52.644;4.734;2023-12-20T09:48:41;20.87;;;4.53;;
17488;SDS011;8861;52.644;4.734;2023-12-20T09:51:10;24.47;;;4.77;;
17488;SDS011;8861;52.644;4.734;2023-12-20T09:53:38;22.87;;;4.30;;
17488;SDS011;8861;52.644;4.734;2023-12-20T09:56:07;30.77;;;4.83;;
17488;SDS011;8861;52.644;4.734;2023-12-20T09:58:36;23.20;;;4.63;;
17488;SDS011;8861;52.644;4.734;2023-12-20T10:01:04;24.50;;;4.40;;
17488;SDS011;8861;52.644;4.734;2023-12-20T10:03:33;26.67;;;4.60;;
17488;SDS011;8861;52.644;4.734;2023-12-20T10:06:02;25.37;;;4.53;;
17488;SDS011;8861;52.644;4.734;2023-12-20T10:08:31;21.83;;;4.60;;
17488;SDS011;8861;52.644;4.734;2023-12-20T10:10:58;25.33;;;4.63;;
17488;SDS011;8861;52.644;4.734;2023-12-20T10:13:27;27.60;;;4.80;;
17488;SDS011;8861;52.644;4.734;2023-12-20T10:15:55;27.50;;;4.60;;
17488;SDS011;8861;52.644;4.734;2023-12-20T10:18:23;29.57;;;5.00;;
17488;SDS011;8861;52.644;4.734;2023-12-20T10:20:50;26.23;;;4.87;;
17488;SDS011;8861;52.644;4.734;2023-12-20T10:23:17;24.70;;;4.60;;
17488;SDS011;8861;52.644;4.734;2023-12-20T10:25:56;24.50;;;4.40;;
17488;SDS011;8861;52.644;4.734;2023-12-20T10:28:24;24.93;;;4.67;;
17488;SDS011;8861;52.644;4.734;2023-12-20T10:30:53;23.93;;;4.87;;
17488;SDS011;8861;52.644;4.734;2023-12-20T10:33:24;20.13;;;4.37;;
17488;SDS011;8861;52.644;4.734;2023-12-20T10:35:52;23.77;;;4.40;;
17488;SDS011;8861;52.644;4.734;2023-12-20T10:38:20;22.60;;;4.23;;
17488;SDS011;8861;52.644;4.734;2023-12-20T10:40:48;23.20;;;4.60;;
17488;SDS011;8861;52.644;4.734;2023-12-20T10:43:21;21.43;;;4.73;;
17488;SDS011;8861;52.644;4.734;2023-12-20T10:45:51;31.77;;;5.00;;
17488;SDS011;8861;52.644;4.734;2023-12-20T10:48:18;25.10;;;4.30;;
17488;SDS011;8861;52.644;4.734;2023-12-20T10:50:47;23.17;;;4.53;;
17488;SDS011;8861;52.644;4.734;2023-12-20T10:53:16;32.67;;;4.80;;
17488;SDS011;8861;52.644;4.734;2023-12-20T10:55:44;25.23;;;5.13;;
17488;SDS011;8861;52.644;4.734;2023-12-20T10:58:15;24.10;;;4.37;;
17488;SDS011;8861;52.644;4.734;2023-12-20T11:00:49;22.03;;;3.83;;
17488;SDS011;8861;52.644;4.734;2023-12-20T11:03:24;20.30;;;4.00;;
17488;SDS011;8861;52.644;4.734;2023-12-20T11:06:00;24.50;;;4.33;;
17488;SDS011;8861;52.644;4.734;2023-12-20T11:08:32;22.47;;;4.30;;
17488;SDS011;8861;52.644;4.734;2023-12-20T11:11:03;24.73;;;4.43;;
17488;SDS011;8861;52.644;4.734;2023-12-20T11:13:36;24.47;;;4.30;;
17488;SDS011;8861;52.644;4.734;2023-12-20T11:16:08;24.17;;;5.00;;
17488;SDS011;8861;52.644;4.734;2023-12-20T11:18:35;24.10;;;4.40;;
17488;SDS011;8861;52.644;4.734;2023-12-20T11:21:04;25.03;;;4.90;;
17488;SDS011;8861;52.644;4.734;2023-12-20T11:23:36;20.83;;;4.40;;
17488;SDS011;8861;52.644;4.734;2023-12-20T11:26:03;17.00;;;3.73;;
17488;SDS011;8861;52.644;4.734;2023-12-20T11:28:30;23.40;;;4.20;;
17488;SDS011;8861;52.644;4.734;2023-12-20T11:31:03;16.60;;;3.93;;
17488;SDS011;8861;52.644;4.734;2023-12-20T11:33:35;18.97;;;4.13;;
17488;SDS011;8861;52.644;4.734;2023-12-20T11:36:12;23.70;;;4.37;;
17488;SDS011;8861;52.644;4.734;2023-12-20T11:38:51;23.33;;;4.40;;
17488;SDS011;8861;52.644;4.734;2023-12-20T11:41:25;28.90;;;5.00;;
17488;SDS011;8861;52.644;4.734;2023-12-20T11:43:52;22.17;;;4.50;;
17488;SDS011;8861;52.644;4.734;2023-12-20T11:46:20;26.17;;;4.30;;
17488;SDS011;8861;52.644;4.734;2023-12-20T11:48:51;19.67;;;4.30;;
17488;SDS011;8861;52.644;4.734;2023-12-20T11:51:18;21.90;;;4.30;;
17488;SDS011;8861;52.644;4.734;2023-12-20T11:53:46;22.30;;;4.03;;
17488;SDS011;8861;52.644;4.734;2023-12-20T11:56:17;17.00;;;4.07;;
17488;SDS011;8861;52.644;4.734;2023-12-20T11:58:45;18.97;;;3.60;;
17488;SDS011;8861;52.644;4.734;2023-12-20T12:01:13;21.43;;;4.80;;
17488;SDS011;8861;52.644;4.734;2023-12-20T12:03:41;20.10;;;4.20;;
17488;SDS011;8861;52.644;4.734;2023-12-20T12:06:12;20.53;;;4.13;;
17488;SDS011;8861;52.644;4.734;2023-12-20T12:08:42;20.23;;;4.53;;
17488;SDS011;8861;52.644;4.734;2023-12-20T12:11:09;21.17;;;4.03;;
17488;SDS011;8861;52.644;4.734;2023-12-20T12:13:36;27.10;;;4.53;;
17488;SDS011;8861;52.644;4.734;2023-12-20T12:16:05;19.13;;;3.63;;
17488;SDS011;8861;52.644;4.734;2023-12-20T12:18:32;20.80;;;4.47;;
17488;SDS011;8861;52.644;4.734;2023-12-20T12:21:00;19.43;;;4.27;;
17488;SDS011;8861;52.644;4.734;2023-12-20T12:23:30;22.30;;;4.30;;
17488;SDS011;8861;52.644;4.734;2023-12-20T12:25:56;24.73;;;4.00;;
17488;SDS011;8861;52.644;4.734;2023-12-20T12:28:25;21.13;;;3.93;;
17488;SDS011;8861;52.644;4.734;2023-12-20T12:30:57;19.27;;;4.03;;
17488;SDS011;8861;52.644;4.734;2023-12-20T12:33:24;19.67;;;4.13;;
17488;SDS011;8861;52.644;4.734;2023-12-20T12:35:52;15.80;;;3.50;;
17488;SDS011;8861;52.644;4.734;2023-12-20T12:38:20;24.80;;;4.50;;
17488;SDS011;8861;52.644;4.734;2023-12-20T12:40:49;23.83;;;4.27;;
17488;SDS011;8861;52.644;4.734;2023-12-20T12:43:18;21.37;;;4.33;;
17488;SDS011;8861;52.644;4.734;2023-12-20T12:45:47;19.23;;;4.10;;
17488;SDS011;8861;52.644;4.734;2023-12-20T12:48:14;19.27;;;3.97;;
17488;SDS011;8861;52.644;4.734;2023-12-20T12:50:41;24.97;;;4.20;;
17488;SDS011;8861;52.644;4.734;2023-12-20T12:53:08;25.13;;;4.27;;
17488;SDS011;8861;52.644;4.734;2023-12-20T12:55:35;26.47;;;4.20;;
17488;SDS011;8861;52.644;4.734;2023-12-20T12:58:04;16.87;;;3.77;;
17488;SDS011;8861;52.644;4.734;2023-12-20T13:00:32;18.93;;;3.50;;
17488;SDS011;8861;52.644;4.734;2023-12-20T13:02:59;21.97;;;4.13;;
17488;SDS011;8861;52.644;4.734;2023-12-20T13:05:26;24.17;;;4.37;;
17488;SDS011;8861;52.644;4.734;2023-12-20T13:07:53;23.17;;;4.67;;
17488;SDS011;8861;52.644;4.734;2023-12-20T13:10:20;23.23;;;4.73;;
17488;SDS011;8861;52.644;4.734;2023-12-20T13:12:47;22.50;;;4.13;;
17488;SDS011;8861;52.644;4.734;2023-12-20T13:15:16;22.47;;;4.30;;
17488;SDS011;8861;52.644;4.734;2023-12-20T13:17:43;26.23;;;4.37;;
17488;SDS011;8861;52.644;4.734;2023-12-20T13:20:11;22.60;;;4.50;;
17488;SDS011;8861;52.644;4.734;2023-12-20T13:22:38;19.53;;;3.90;;
17488;SDS011;8861;52.644;4.734;2023-12-20T13:25:05;26.33;;;4.47;;
17488;SDS011;8861;52.644;4.734;2023-12-20T13:27:33;25.17;;;4.17;;
17488;SDS011;8861;52.644;4.734;2023-12-20T13:30:00;28.00;;;4.30;;
17488;SDS011;8861;52.644;4.734;2023-12-20T13:32:29;22.30;;;4.17;;
17488;SDS011;8861;52.644;4.734;2023-12-20T13:34:59;25.30;;;4.40;;
17488;SDS011;8861;52.644;4.734;2023-12-20T13:37:27;19.30;;;3.73;;
17488;SDS011;8861;52.644;4.734;2023-12-20T13:39:54;23.70;;;4.03;;
17488;SDS011;8861;52.644;4.734;2023-12-20T13:42:22;22.27;;;3.90;;
17488;SDS011;8861;52.644;4.734;2023-12-20T13:44:49;19.60;;;4.00;;
17488;SDS011;8861;52.644;4.734;2023-12-20T13:47:16;21.83;;;4.10;;
17488;SDS011;8861;52.644;4.734;2023-12-20T13:49:46;24.30;;;3.97;;
17488;SDS011;8861;52.644;4.734;2023-12-20T13:52:13;20.53;;;4.07;;
17488;SDS011;8861;52.644;4.734;2023-12-20T13:54:40;19.63;;;4.00;;
17488;SDS011;8861;52.644;4.734;2023-12-20T13:57:07;21.77;;;4.60;;
17488;SDS011;8861;52.644;4.734;2023-12-20T13:59:34;21.63;;;3.83;;
17488;SDS011;8861;52.644;4.734;2023-12-20T14:02:01;23.67;;;4.07;;
17488;SDS011;8861;52.644;4.734;2023-12-20T14:04:29;22.93;;;3.80;;
17488;SDS011;8861;52.644;4.734;2023-12-20T14:06:58;18.97;;;4.40;;
17488;SDS011;8861;52.644;4.734;2023-12-20T14:09:25;17.40;;;3.83;;
17488;SDS011;8861;52.644;4.734;2023-12-20T14:11:52;22.97;;;4.03;;
17488;SDS011;8861;52.644;4.734;2023-12-20T14:14:20;17.63;;;3.30;;
17488;SDS011;8861;52.644;4.734;2023-12-20T14:16:47;15.87;;;3.60;;
17488;SDS011;8861;52.644;4.734;2023-12-20T14:19:15;20.77;;;4.33;;
17488;SDS011;8861;52.644;4.734;2023-12-20T14:21:43;23.47;;;3.67;;
17488;SDS011;8861;52.644;4.734;2023-12-20T14:24:12;26.63;;;4.20;;
17488;SDS011;8861;52.644;4.734;2023-12-20T14:26:40;19.70;;;3.70;;
17488;SDS011;8861;52.644;4.734;2023-12-20T14:29:07;20.90;;;4.70;;
17488;SDS011;8861;52.644;4.734;2023-12-20T14:31:34;20.90;;;3.73;;
17488;SDS011;8861;52.644;4.734;2023-12-20T14:34:03;22.43;;;3.90;;
17488;SDS011;8861;52.644;4.734;2023-12-20T14:36:30;19.77;;;3.60;;
17488;SDS011;8861;52.644;4.734;2023-12-20T14:38:57;18.80;;;3.50;;
17488;SDS011;8861;52.644;4.734;2023-12-20T14:41:26;21.90;;;4.13;;
17488;SDS011;8861;52.644;4.734;2023-12-20T14:43:53;18.80;;;3.77;;
17488;SDS011;8861;52.644;4.734;2023-12-20T14:46:20;20.07;;;3.50;;
17488;SDS011;8861;52.644;4.734;2023-12-20T14:48:47;15.83;;;3.57;;
17488;SDS011;8861;52.644;4.734;2023-12-20T14:51:14;26.17;;;4.17;;